createdAt,value
2022-09-08T00:02:41.344Z,98871.59
2022-09-08T00:07:48.430Z,98881.09
2022-09-08T00:12:51.853Z,98876.78
2022-09-08T00:17:55.225Z,98882.00
2022-09-08T00:23:00.752Z,98893.22
2022-09-08T00:28:04.510Z,98888.06
2022-09-08T00:33:09.603Z,98889.81
2022-09-08T00:38:14.671Z,98892.41
2022-09-08T00:43:37.185Z,98897.63
2022-09-08T00:48:47.544Z,98899.38
2022-09-08T00:53:53.117Z,98895.97
2022-09-08T00:58:57.239Z,98906.34
2022-09-08T01:04:01.788Z,98895.13
2022-09-08T01:09:31.606Z,98911.53
2022-09-08T01:14:45.786Z,98909.81
2022-09-08T01:19:50.665Z,98914.13
2022-09-08T01:24:58.274Z,98908.00
2022-09-08T01:30:05.463Z,98917.56
2022-09-08T01:35:10.391Z,98920.19
2022-09-08T01:40:13.623Z,98915.88
2022-09-08T01:45:19.093Z,98915.06
2022-09-08T01:50:24.191Z,98925.44
2022-09-08T01:55:27.685Z,98919.38
2022-09-08T02:00:32.481Z,98913.34
2022-09-08T02:05:40.085Z,98927.16
2022-09-08T02:10:43.876Z,98928.97
2022-09-08T02:15:49.079Z,98933.25
2022-09-08T02:20:54.964Z,98933.22
2022-09-08T02:25:58.568Z,98932.38
2022-09-08T02:31:04.499Z,98934.09
2022-09-08T02:36:08.913Z,98947.06
2022-09-08T02:41:13.649Z,98948.81
2022-09-08T02:46:18.895Z,98944.47
2022-09-08T02:51:22.561Z,98947.97
2022-09-08T02:56:30.063Z,98949.72
2022-09-08T03:01:35.551Z,98954.06
2022-09-08T03:06:39.668Z,98958.38
2022-09-08T03:11:43.117Z,98962.72
2022-09-08T03:16:48.114Z,98966.13
2022-09-08T03:21:52.351Z,98971.31
2022-09-08T03:26:55.908Z,98974.75
2022-09-08T03:32:00.926Z,98984.19
2022-09-08T03:37:04.392Z,98986.81
2022-09-08T03:42:07.955Z,98988.53
2022-09-08T03:47:12.704Z,98991.97
2022-09-08T03:52:16.056Z,99004.09
2022-09-08T03:57:23.224Z,99007.53
2022-09-08T04:02:30.015Z,99009.22
2022-09-08T04:07:35.641Z,99011.63
2022-09-08T04:12:39.591Z,99025.38
2022-09-08T04:17:44.873Z,99022.31
2022-09-08T04:22:48.521Z,99013.81
2022-09-08T04:27:52.146Z,99028.41
2022-09-08T04:32:57.150Z,99028.38
2022-09-08T04:38:01.430Z,99032.31
2022-09-08T04:43:04.867Z,99030.72
2022-09-08T04:48:10.723Z,99029.25
2022-09-08T04:53:14.739Z,99028.72
2022-09-08T04:58:19.932Z,99035.94
2022-09-08T05:03:24.736Z,99044.72
2022-09-08T05:08:27.870Z,99047.94
2022-09-08T05:13:32.124Z,99050.59
2022-09-08T05:18:37.593Z,99062.13
2022-09-08T05:23:41.251Z,99063.97
2022-09-08T05:28:45.575Z,99069.19
2022-09-08T05:33:51.910Z,99073.47
2022-09-08T05:38:56.835Z,99076.84
2022-09-08T05:44:01.378Z,99089.00
2022-09-08T05:49:06.147Z,99081.34
2022-09-08T05:54:09.443Z,99094.31
2022-09-08T05:59:13.362Z,99097.66
2022-09-08T06:04:20.150Z,99096.69
2022-09-08T06:09:23.436Z,99100.16
2022-09-08T06:14:27.046Z,99092.31
2022-09-08T06:19:32.091Z,99097.00
2022-09-08T06:24:35.844Z,99106.22
2022-09-08T06:29:59.310Z,99113.69
2022-09-08T06:35:09.395Z,99124.94
2022-09-08T06:40:17.363Z,99130.88
2022-09-08T06:45:25.162Z,99127.28
2022-09-08T06:50:34.548Z,99139.63
2022-09-08T06:55:42.399Z,99138.03
2022-09-08T07:00:52.209Z,99150.94
2022-09-08T07:06:07.858Z,99160.19
2022-09-08T07:11:23.223Z,99153.44
2022-09-08T07:16:37.043Z,99163.94
2022-09-08T07:21:52.526Z,99164.81
2022-09-08T07:26:59.012Z,99170.59
2022-09-08T07:32:04.102Z,99161.38
2022-09-08T07:37:17.438Z,99167.47
2022-09-08T07:42:21.205Z,99177.66
2022-09-08T07:47:35.224Z,99177.91
2022-09-08T07:52:51.618Z,99188.13
2022-09-08T07:58:02.882Z,99185.28
2022-09-08T08:03:30.107Z,99193.44
2022-09-08T08:08:44.810Z,99195.63
2022-09-08T08:14:00.449Z,99197.91
2022-09-08T08:19:18.623Z,99201.59
2022-09-08T08:24:34.122Z,99211.25
2022-09-08T08:30:02.867Z,99220.75
2022-09-08T08:35:15.166Z,99210.81
2022-09-08T08:40:48.945Z,99208.66
2022-09-08T08:46:08.097Z,99208.94
2022-09-08T08:51:23.206Z,99213.13
2022-09-08T08:56:31.302Z,99223.25
2022-09-08T09:01:46.973Z,99242.78
2022-09-08T09:07:20.898Z,99247.63
2022-09-08T09:12:36.798Z,99244.34
2022-09-08T09:18:06.386Z,99252.78
2022-09-08T09:23:16.926Z,99252.34
2022-09-08T09:28:57.226Z,99254.97
2022-09-08T09:34:17.727Z,99257.41
2022-09-08T09:39:43.009Z,99269.72
2022-09-08T09:45:32.658Z,99264.16
2022-09-08T09:50:54.579Z,99267.84
2022-09-08T09:56:35.207Z,99286.31
2022-09-08T10:01:53.943Z,99288.13
2022-09-08T10:07:31.172Z,99291.97
2022-09-08T10:13:07.972Z,99287.03
2022-09-08T10:18:40.854Z,99286.22
2022-09-08T10:24:17.022Z,99294.72
2022-09-08T10:29:55.990Z,99299.66
2022-09-08T10:35:29.682Z,99297.66
2022-09-08T10:40:40.599Z,99302.41
2022-09-08T10:46:15.317Z,99315.47
2022-09-08T10:52:01.008Z,99319.69
2022-09-08T10:57:20.848Z,99332.31
2022-09-08T11:02:36.281Z,99333.47
2022-09-08T11:08:01.708Z,99325.88
2022-09-08T11:13:21.295Z,99325.47
2022-09-08T11:18:38.154Z,99321.13
2022-09-08T11:24:04.223Z,99325.13
2022-09-08T11:29:11.568Z,99329.44
2022-09-08T11:34:41.083Z,99367.53
2022-09-08T11:39:57.662Z,99372.78
2022-09-08T11:45:15.271Z,99367.88
2022-09-08T11:50:40.871Z,99366.84
2022-09-08T11:56:11.131Z,99362.25
2022-09-08T12:01:44.750Z,99361.31
2022-09-08T12:07:11.960Z,99360.69
2022-09-08T12:12:34.966Z,99356.72
2022-09-08T12:17:50.555Z,99350.53
2022-09-08T12:23:20.699Z,99356.50
2022-09-08T12:28:54.994Z,99360.59
2022-09-08T12:34:29.931Z,99389.84
2022-09-08T12:39:53.321Z,99399.31
2022-09-08T12:45:16.775Z,99406.47
2022-09-08T12:50:35.951Z,99373.66
2022-09-08T12:55:43.282Z,99406.34
2022-09-08T13:00:58.083Z,99417.59
2022-09-08T13:06:36.964Z,99422.91
2022-09-08T13:12:17.132Z,99415.84
2022-09-08T13:17:31.489Z,99422.78
2022-09-08T13:22:41.087Z,99438.41
2022-09-08T13:28:01.043Z,99438.50
2022-09-08T13:33:22.278Z,99425.66
2022-09-08T13:38:54.543Z,99437.78
2022-09-08T13:44:20.398Z,99433.47
2022-09-08T13:49:48.160Z,99437.84
2022-09-08T13:55:15.537Z,99448.44
2022-09-08T14:00:21.235Z,99456.34
2022-09-08T14:05:33.878Z,99457.13
2022-09-08T14:11:04.017Z,99456.84
2022-09-08T14:16:19.870Z,99467.94
2022-09-08T14:21:34.655Z,99465.44
2022-09-08T14:26:50.499Z,99481.34
2022-09-08T14:32:05.010Z,99488.38
2022-09-08T14:37:17.523Z,99494.47
2022-09-08T14:42:24.748Z,99488.41
2022-09-08T14:47:32.865Z,99485.00
2022-09-08T14:52:51.582Z,99504.97
2022-09-08T14:58:24.019Z,99502.41
2022-09-08T15:03:34.168Z,99504.16
2022-09-08T15:08:41.810Z,99520.59
2022-09-08T15:14:03.836Z,99510.19
2022-09-08T15:19:16.162Z,99528.34
2022-09-08T15:24:36.623Z,99527.50
2022-09-08T15:29:59.155Z,99529.19
2022-09-08T15:35:22.574Z,99535.22
2022-09-08T15:40:28.880Z,99545.56
2022-09-08T15:46:04.078Z,99564.66
2022-09-08T15:51:18.168Z,99560.31
2022-09-08T15:57:06.839Z,99568.94
2022-09-08T16:02:27.603Z,99573.13
2022-09-08T16:07:42.183Z,99567.75
2022-09-08T16:12:55.271Z,99576.22
2022-09-08T16:18:31.091Z,99587.25
2022-09-08T16:23:41.405Z,99593.13
2022-09-08T16:28:55.585Z,99601.66
2022-09-08T16:34:25.710Z,99598.22
2022-09-08T16:39:29.531Z,99611.22
2022-09-08T16:44:47.628Z,99607.03
2022-09-08T16:50:04.146Z,99627.63
2022-09-08T16:55:25.785Z,99633.31
2022-09-08T17:00:45.770Z,99633.00
2022-09-08T17:05:57.026Z,99631.81
2022-09-08T17:11:09.777Z,99639.38
2022-09-08T17:16:51.781Z,99639.19
2022-09-08T17:22:42.887Z,99635.47
2022-09-08T17:28:50.298Z,99634.16
2022-09-08T17:34:25.919Z,99656.44
2022-09-08T17:39:49.787Z,99654.50
2022-09-08T17:45:03.147Z,99656.88
2022-09-08T17:50:21.341Z,99661.81
2022-09-08T17:55:40.562Z,99664.13
2022-09-08T18:00:53.881Z,99664.00
2022-09-08T18:06:06.934Z,99661.56
2022-09-08T18:11:37.019Z,99672.94
2022-09-08T18:16:44.397Z,99677.06
2022-09-08T18:22:23.402Z,99677.94
2022-09-08T18:27:54.660Z,99685.59
2022-09-08T18:33:13.030Z,99686.25
2022-09-08T18:38:26.041Z,99697.19
2022-09-08T18:43:37.364Z,99694.53
2022-09-08T18:48:52.482Z,99696.09
2022-09-08T18:54:42.512Z,99696.91
2022-09-08T19:00:01.369Z,99696.84
2022-09-08T19:05:21.288Z,99700.44
2022-09-08T19:10:32.349Z,99698.28
2022-09-08T19:15:53.992Z,99691.81
2022-09-08T19:21:02.690Z,99709.22
2022-09-08T19:26:20.831Z,99701.63
2022-09-08T19:31:36.000Z,99713.09
2022-09-08T19:36:53.993Z,99715.88
2022-09-08T19:42:09.247Z,99719.47
2022-09-08T19:47:31.878Z,99717.88
2022-09-08T19:52:53.764Z,99716.38
2022-09-08T19:58:02.065Z,99712.28
2022-09-08T20:03:15.850Z,99714.97
2022-09-08T20:08:42.242Z,99710.03
2022-09-08T20:13:55.615Z,99723.88
2022-09-08T20:19:11.628Z,99727.25
2022-09-08T20:24:28.651Z,99728.16
2022-09-08T20:29:38.299Z,99730.72
2022-09-08T20:35:09.740Z,99733.09
2022-09-08T20:40:19.530Z,99740.03
2022-09-08T20:45:36.298Z,99741.88
2022-09-08T20:50:49.519Z,99735.84
2022-09-08T20:56:02.988Z,99745.38
2022-09-08T21:01:15.687Z,99757.41
2022-09-08T21:06:24.239Z,99755.72
2022-09-08T21:11:34.229Z,99762.59
2022-09-08T21:16:45.080Z,99765.03
2022-09-08T21:21:56.540Z,99772.75
2022-09-08T21:27:23.606Z,99767.63
2022-09-08T21:32:43.117Z,99773.78
2022-09-08T21:37:55.487Z,99770.38
2022-09-08T21:43:01.870Z,99770.38
2022-09-08T21:48:14.203Z,99785.94
2022-09-08T21:53:30.457Z,99792.84
2022-09-08T21:58:39.404Z,99789.50
2022-09-08T22:03:48.428Z,99793.84
2022-09-08T22:09:13.966Z,99794.78
2022-09-08T22:14:32.511Z,99804.25
2022-09-08T22:19:41.145Z,99796.50
2022-09-08T22:24:54.469Z,99799.06
2022-09-08T22:30:21.927Z,99812.72
2022-09-08T22:35:42.865Z,99807.34
2022-09-08T22:40:55.664Z,99811.41
2022-09-08T22:46:14.932Z,99813.78
2022-09-08T22:51:31.604Z,99814.41
2022-09-08T22:56:50.949Z,99816.66
2022-09-08T23:02:00.191Z,99817.09
2022-09-08T23:07:20.467Z,99829.72
2022-09-08T23:12:34.014Z,99824.06
2022-09-08T23:17:49.499Z,99832.41
2022-09-08T23:23:20.081Z,99835.59
2022-09-08T23:28:50.949Z,99837.19
2022-09-08T23:34:03.715Z,99836.28
2022-09-08T23:39:22.439Z,99852.09
2022-09-08T23:44:27.402Z,99847.09
2022-09-08T23:49:31.703Z,99854.97
2022-09-08T23:54:36.599Z,99854.25
2022-09-08T23:59:41.581Z,99858.81
